createdAt,value
2022-10-20T00:01:07.499Z,4.00
2022-10-20T00:06:12.425Z,4.30
2022-10-20T00:11:18.472Z,4.50
2022-10-20T00:16:22.610Z,3.67
2022-10-20T00:21:27.897Z,4.33
2022-10-20T00:26:33.436Z,4.33
2022-10-20T00:31:36.218Z,4.60
2022-10-20T00:36:39.982Z,5.40
2022-10-20T00:41:44.080Z,5.37
2022-10-20T00:46:46.868Z,4.60
2022-10-20T00:51:50.543Z,4.83
2022-10-20T00:56:56.586Z,4.93
2022-10-20T01:02:00.613Z,5.70
2022-10-20T01:07:04.735Z,5.60
2022-10-20T01:12:20.956Z,5.20
2022-10-20T01:17:33.011Z,5.00
2022-10-20T01:22:56.494Z,5.40
2022-10-20T01:28:07.765Z,5.40
2022-10-20T01:33:19.396Z,5.30
2022-10-20T01:38:29.650Z,5.23
2022-10-20T01:43:38.786Z,5.57
2022-10-20T01:48:42.978Z,5.57
2022-10-20T01:53:45.757Z,5.57
2022-10-20T01:59:25.438Z,5.50
2022-10-20T02:04:36.122Z,5.50
2022-10-20T02:09:49.911Z,5.47
2022-10-20T02:14:55.143Z,4.90
2022-10-20T02:19:59.093Z,5.10
2022-10-20T02:25:02.403Z,4.97
2022-10-20T02:30:10.164Z,5.23
2022-10-20T02:35:20.347Z,4.20
2022-10-20T02:40:23.238Z,4.43
2022-10-20T02:45:27.320Z,4.53
2022-10-20T02:50:30.088Z,4.10
2022-10-20T02:55:32.852Z,4.00
2022-10-20T03:00:36.957Z,3.93
2022-10-20T03:05:41.738Z,4.33
2022-10-20T03:10:44.742Z,3.90
2022-10-20T03:15:48.905Z,4.13
2022-10-20T03:20:51.989Z,4.57
2022-10-20T03:25:54.738Z,4.73
2022-10-20T03:30:58.965Z,5.27
2022-10-20T03:36:01.719Z,6.07
2022-10-20T03:41:04.582Z,5.57
2022-10-20T03:46:11.365Z,5.93
2022-10-20T03:51:15.195Z,5.10
2022-10-20T03:56:20.816Z,5.10
2022-10-20T04:01:31.093Z,6.27
2022-10-20T04:06:33.923Z,5.27
2022-10-20T04:11:36.755Z,5.17
2022-10-20T04:16:42.035Z,5.13
2022-10-20T04:21:51.844Z,4.83
2022-10-20T04:26:54.600Z,4.80
2022-10-20T04:31:58.984Z,4.30
2022-10-20T04:37:01.723Z,4.03
2022-10-20T04:42:04.509Z,3.93
2022-10-20T04:47:08.587Z,4.20
2022-10-20T04:52:11.477Z,3.80
2022-10-20T04:57:14.470Z,3.77
2022-10-20T05:02:18.764Z,3.60
2022-10-20T05:07:21.549Z,3.30
2022-10-20T05:12:24.402Z,3.40
2022-10-20T05:17:30.803Z,3.53
2022-10-20T05:22:33.801Z,3.47
2022-10-20T05:27:36.861Z,3.10
2022-10-20T05:32:40.964Z,3.53
2022-10-20T05:37:43.779Z,3.27
2022-10-20T05:42:46.598Z,3.37
2022-10-20T05:47:50.721Z,3.13
2022-10-20T05:52:53.929Z,3.03
2022-10-20T05:57:56.677Z,3.50
2022-10-20T06:03:01.058Z,3.30
2022-10-20T06:08:03.892Z,3.63
2022-10-20T06:13:06.630Z,3.63
2022-10-20T06:18:10.751Z,3.80
2022-10-20T06:23:13.482Z,3.63
2022-10-20T06:28:16.653Z,3.93
2022-10-20T06:33:20.839Z,3.57
2022-10-20T06:38:24.009Z,3.90
2022-10-20T06:43:27.225Z,3.00
2022-10-20T06:48:31.411Z,3.47
2022-10-20T06:53:36.474Z,3.23
2022-10-20T06:58:40.394Z,3.67
2022-10-20T07:03:45.995Z,3.07
2022-10-20T07:08:51.012Z,3.33
2022-10-20T07:13:54.029Z,2.90
2022-10-20T07:18:58.383Z,3.13
2022-10-20T07:24:02.381Z,2.63
2022-10-20T07:29:05.965Z,2.30
2022-10-20T07:34:27.936Z,3.17
2022-10-20T07:39:31.042Z,3.10
2022-10-20T07:44:33.805Z,2.10
2022-10-20T07:49:45.337Z,2.13
2022-10-20T07:54:48.298Z,3.22
2022-10-20T07:59:51.037Z,2.05
2022-10-20T08:04:55.180Z,2.28
2022-10-20T08:09:57.935Z,2.25
2022-10-20T08:15:06.580Z,2.33
2022-10-20T08:25:29.968Z,2.03
2022-10-20T08:30:34.685Z,2.40
2022-10-20T08:35:40.368Z,2.03
2022-10-20T08:40:46.112Z,2.03
2022-10-20T08:45:48.905Z,2.50
2022-10-20T08:50:54.560Z,2.05
2022-10-20T08:55:57.417Z,2.30
2022-10-20T09:01:02.036Z,2.28
2022-10-20T09:06:09.713Z,2.10
2022-10-20T09:11:17.547Z,2.13
2022-10-20T09:16:40.493Z,2.13
2022-10-20T09:21:48.316Z,2.28
2022-10-20T09:26:58.630Z,2.17
2022-10-20T09:32:16.686Z,2.10
2022-10-20T09:37:26.745Z,2.40
2022-10-20T09:42:31.400Z,1.83
2022-10-20T09:47:35.959Z,2.05
2022-10-20T09:52:47.683Z,2.50
2022-10-20T09:57:50.993Z,1.90
2022-10-20T10:03:21.401Z,2.20
2022-10-20T10:08:27.615Z,2.00
2022-10-20T10:13:32.875Z,2.15
2022-10-20T10:18:36.875Z,2.05
2022-10-20T10:23:54.117Z,2.20
2022-10-20T10:28:59.373Z,2.42
2022-10-20T10:34:42.561Z,2.35
2022-10-20T10:39:46.941Z,2.30
2022-10-20T10:44:59.779Z,2.33
2022-10-20T10:50:25.068Z,2.13
2022-10-20T10:55:48.165Z,2.10
2022-10-20T11:01:01.113Z,1.80
2022-10-20T11:06:12.303Z,1.90
2022-10-20T11:11:28.393Z,1.80
2022-10-20T11:16:40.941Z,2.08
2022-10-20T11:21:58.612Z,1.67
2022-10-20T11:27:08.745Z,2.20
2022-10-20T11:32:21.005Z,2.00
2022-10-20T11:37:28.962Z,2.13
2022-10-20T11:42:40.929Z,2.17
2022-10-20T11:47:46.362Z,2.20
2022-10-20T11:53:09.641Z,2.13
2022-10-20T11:58:41.442Z,1.90
2022-10-20T12:04:06.045Z,2.30
2022-10-20T12:09:36.007Z,2.20
2022-10-20T12:14:43.985Z,2.38
2022-10-20T12:19:51.730Z,2.20
2022-10-20T12:25:18.250Z,2.33
2022-10-20T12:30:45.214Z,2.20
2022-10-20T12:36:24.708Z,2.33
2022-10-20T12:41:30.059Z,2.80
2022-10-20T12:46:37.670Z,2.50
2022-10-20T12:51:49.713Z,3.65
2022-10-20T12:56:57.298Z,3.35
2022-10-20T13:02:39.601Z,3.45
2022-10-20T13:08:04.558Z,3.20
2022-10-20T13:13:44.993Z,3.20
2022-10-20T13:18:50.613Z,3.35
2022-10-20T13:24:04.014Z,3.70
2022-10-20T13:29:13.973Z,3.53
2022-10-20T13:34:21.156Z,3.47
2022-10-20T13:39:35.879Z,3.75
2022-10-20T13:44:48.859Z,3.65
2022-10-20T13:50:00.496Z,4.15
2022-10-20T13:55:07.327Z,5.32
2022-10-20T14:00:19.730Z,5.07
2022-10-20T14:05:24.002Z,4.55
2022-10-20T14:10:33.095Z,4.82
2022-10-20T14:15:38.045Z,5.03
2022-10-20T14:20:41.774Z,4.95
2022-10-20T14:25:46.740Z,5.05
2022-10-20T14:30:51.229Z,5.15
2022-10-20T14:35:56.202Z,5.95
2022-10-20T14:41:00.679Z,6.05
2022-10-20T14:46:04.739Z,6.70
2022-10-20T14:51:35.234Z,6.15
2022-10-20T14:56:45.381Z,6.20
2022-10-20T15:02:01.245Z,5.90
2022-10-20T15:07:06.595Z,5.15
2022-10-20T15:12:16.795Z,5.28
2022-10-20T15:17:41.370Z,5.53
2022-10-20T15:22:44.370Z,5.13
2022-10-20T15:27:48.653Z,5.70
2022-10-20T15:32:51.976Z,5.15
2022-10-20T15:37:56.422Z,5.03
2022-10-20T15:43:00.551Z,5.80
2022-10-20T15:48:03.351Z,5.15
2022-10-20T15:53:06.161Z,5.70
2022-10-20T15:58:10.490Z,5.93
2022-10-20T16:03:17.535Z,5.22
2022-10-20T16:08:20.330Z,5.18
2022-10-20T16:13:24.501Z,4.85
2022-10-20T16:18:27.353Z,4.57
2022-10-20T16:23:30.215Z,4.10
2022-10-20T16:28:35.277Z,4.40
2022-10-20T16:33:38.045Z,5.30
2022-10-20T16:38:40.927Z,4.60
2022-10-20T16:43:46.923Z,4.90
2022-10-20T16:48:50.103Z,5.27
2022-10-20T16:53:55.122Z,5.40
2022-10-20T16:59:01.865Z,5.67
2022-10-20T17:04:07.202Z,4.70
2022-10-20T17:09:10.315Z,4.83
2022-10-20T17:14:14.419Z,5.20
2022-10-20T17:19:17.253Z,5.93
2022-10-20T17:24:20.127Z,5.17
2022-10-20T17:29:26.997Z,5.80
2022-10-20T17:34:29.811Z,5.30
2022-10-20T17:39:32.712Z,5.23
2022-10-20T17:44:36.824Z,4.63
2022-10-20T17:49:39.589Z,5.27
2022-10-20T17:54:42.328Z,4.73
2022-10-20T17:59:53.424Z,4.67
2022-10-20T18:04:57.557Z,4.70
2022-10-20T18:10:00.312Z,4.40
2022-10-20T18:15:11.979Z,4.60
2022-10-20T18:20:14.755Z,4.43
2022-10-20T18:25:17.751Z,4.30
2022-10-20T18:30:21.841Z,4.27
2022-10-20T18:35:24.546Z,5.17
2022-10-20T18:40:27.767Z,4.27
2022-10-20T18:45:35.777Z,4.70
2022-10-20T18:50:38.693Z,4.07
2022-10-20T18:55:42.244Z,4.43
2022-10-20T19:00:59.341Z,3.67
2022-10-20T19:06:05.164Z,4.13
2022-10-20T19:11:11.705Z,4.20
2022-10-20T19:16:18.131Z,3.60
2022-10-20T19:21:22.132Z,3.87
2022-10-20T19:26:26.675Z,3.50
2022-10-20T19:31:33.025Z,3.53
2022-10-20T19:36:36.014Z,3.70
2022-10-20T19:41:38.869Z,3.33
2022-10-20T19:46:44.087Z,3.70
2022-10-20T19:51:47.088Z,3.73
2022-10-20T19:56:49.826Z,3.93
2022-10-20T20:01:53.958Z,4.00
2022-10-20T20:07:01.685Z,4.30
2022-10-20T20:12:05.177Z,4.20
2022-10-20T20:17:11.118Z,4.27
2022-10-20T20:22:14.093Z,4.10
2022-10-20T20:27:16.828Z,4.37
2022-10-20T20:32:20.914Z,4.23
2022-10-20T20:37:23.661Z,4.60
2022-10-20T20:42:26.470Z,4.53
2022-10-20T20:47:33.371Z,5.10
2022-10-20T20:52:36.092Z,4.50
2022-10-20T20:57:39.097Z,5.97
2022-10-20T21:02:46.521Z,5.07
2022-10-20T21:07:49.251Z,5.13
2022-10-20T21:12:52.253Z,5.07
2022-10-20T21:17:56.414Z,5.07
2022-10-20T21:22:59.143Z,5.23
2022-10-20T21:28:02.051Z,6.03
2022-10-20T21:33:06.178Z,5.10
2022-10-20T21:38:08.986Z,5.87
2022-10-20T21:43:14.076Z,5.90
2022-10-20T21:48:18.164Z,5.40
2022-10-20T21:53:20.911Z,6.07
2022-10-20T21:58:23.689Z,5.50
2022-10-20T22:03:27.885Z,5.33
2022-10-20T22:08:30.816Z,5.80
2022-10-20T22:13:34.510Z,5.80
2022-10-20T22:18:38.652Z,5.80
2022-10-20T22:23:42.154Z,5.83
2022-10-20T22:28:44.878Z,5.97
2022-10-20T22:33:48.920Z,5.97
2022-10-20T22:38:52.300Z,5.90
2022-10-20T22:43:55.091Z,6.67
2022-10-20T22:54:08.019Z,6.43
2022-10-20T22:59:10.832Z,6.67
2022-10-20T23:04:15.308Z,5.93
2022-10-20T23:09:18.158Z,6.10
2022-10-20T23:14:21.158Z,6.73
2022-10-20T23:19:25.214Z,6.53
2022-10-20T23:24:27.980Z,6.43
2022-10-20T23:29:30.722Z,6.20
2022-10-20T23:39:42.570Z,6.20
2022-10-20T23:44:45.412Z,6.93
2022-10-20T23:49:49.550Z,6.60
2022-10-20T23:54:52.315Z,6.27
2022-10-20T23:59:55.075Z,6.10
